sensor_id;sensor_type;location;lat;lon;timestamp;pressure;altitude;pressure_sealevel;temperature;humidity
20636;BME280;10477;43.198;27.916;2022-07-23T00:00:33;67454.87;;;-143.34;100.00
20636;BME280;10477;43.198;27.916;2022-07-23T00:03:03;65918.30;;;-143.34;100.00
20636;BME280;10477;43.198;27.916;2022-07-23T00:05:30;64510.37;;;-143.34;100.00
20636;BME280;10477;43.198;27.916;2022-07-23T00:07:58;62719.32;;;-143.34;100.00
20636;BME280;10477;43.198;27.916;2022-07-23T00:10:26;60034.51;;;-143.34;100.00
20636;BME280;10477;43.198;27.916;2022-07-23T00:12:53;56968.75;;;-143.34;100.00
20636;BME280;10477;43.198;27.916;2022-07-23T00:15:21;50972.97;;;-143.34;100.00
20636;BME280;10477;43.198;27.916;2022-07-23T00:17:51;40792.06;;;-143.34;100.00
20636;BME280;10477;43.198;27.916;2022-07-23T00:20:19;19890.54;;;-143.34;100.00
20636;BME280;10477;43.198;27.916;2022-07-23T00:22:51;-378.18;;;-143.34;100.00
20636;BME280;10477;43.198;27.916;2022-07-23T00:25:19;-15064.62;;;-143.34;100.00
20636;BME280;10477;43.198;27.916;2022-07-23T00:27:47;-17276.47;;;-143.34;100.00
20636;BME280;10477;43.198;27.916;2022-07-23T00:30:15;-17276.47;;;-143.34;100.00
20636;BME280;10477;43.198;27.916;2022-07-23T00:32:51;-17276.47;;;-143.34;100.00
20636;BME280;10477;43.198;27.916;2022-07-23T00:35:27;-17276.47;;;-143.34;100.00
20636;BME280;10477;43.198;27.916;2022-07-23T00:37:56;-17276.47;;;-143.34;100.00
20636;BME280;10477;43.198;27.916;2022-07-23T00:40:25;-17276.47;;;-143.34;100.00
20636;BME280;10477;43.198;27.916;2022-07-23T00:42:53;-17276.47;;;-143.34;100.00
20636;BME280;10477;43.198;27.916;2022-07-23T00:45:21;-17276.47;;;-143.34;100.00
20636;BME280;10477;43.198;27.916;2022-07-23T00:47:49;-17276.47;;;-143.34;100.00
20636;BME280;10477;43.198;27.916;2022-07-23T00:50:17;-17276.47;;;-143.34;100.00
20636;BME280;10477;43.198;27.916;2022-07-23T00:52:45;-17276.47;;;-143.34;100.00
20636;BME280;10477;43.198;27.916;2022-07-23T00:55:14;-17276.47;;;-143.34;100.00
20636;BME280;10477;43.198;27.916;2022-07-23T00:57:42;-17276.47;;;-143.34;100.00
20636;BME280;10477;43.198;27.916;2022-07-23T01:00:11;-17276.47;;;-143.34;100.00
20636;BME280;10477;43.198;27.916;2022-07-23T01:02:41;-17276.47;;;-143.34;100.00
20636;BME280;10477;43.198;27.916;2022-07-23T01:05:10;-17276.47;;;-143.34;100.00
20636;BME280;10477;43.198;27.916;2022-07-23T01:07:38;-17276.47;;;-143.34;100.00
20636;BME280;10477;43.198;27.916;2022-07-23T01:10:06;-17276.47;;;-143.34;100.00
20636;BME280;10477;43.198;27.916;2022-07-23T01:12:36;-17276.47;;;-143.34;100.00
20636;BME280;10477;43.198;27.916;2022-07-23T01:15:05;-17276.47;;;-143.34;100.00
20636;BME280;10477;43.198;27.916;2022-07-23T01:17:32;-17276.47;;;-143.34;100.00
20636;BME280;10477;43.198;27.916;2022-07-23T01:20:00;-17276.47;;;-143.34;100.00
20636;BME280;10477;43.198;27.916;2022-07-23T01:22:29;-17276.47;;;-143.34;100.00
20636;BME280;10477;43.198;27.916;2022-07-23T01:24:57;-17276.47;;;-143.34;100.00
20636;BME280;10477;43.198;27.916;2022-07-23T01:27:24;-17276.47;;;-143.34;100.00
20636;BME280;10477;43.198;27.916;2022-07-23T01:29:54;-17276.47;;;-143.34;100.00
20636;BME280;10477;43.198;27.916;2022-07-23T01:32:22;-17276.47;;;-143.34;100.00
20636;BME280;10477;43.198;27.916;2022-07-23T01:34:50;-17276.47;;;-143.34;100.00
20636;BME280;10477;43.198;27.916;2022-07-23T01:37:17;-17276.47;;;-143.34;100.00
20636;BME280;10477;43.198;27.916;2022-07-23T01:39:45;-17276.47;;;-143.34;100.00
20636;BME280;10477;43.198;27.916;2022-07-23T01:42:12;-17276.47;;;-143.34;100.00
20636;BME280;10477;43.198;27.916;2022-07-23T01:44:40;-17276.47;;;-143.34;100.00
20636;BME280;10477;43.198;27.916;2022-07-23T01:47:08;-17276.47;;;-143.34;100.00
20636;BME280;10477;43.198;27.916;2022-07-23T01:49:35;-17276.47;;;-143.34;100.00
20636;BME280;10477;43.198;27.916;2022-07-23T01:52:03;-17276.47;;;-143.34;100.00
20636;BME280;10477;43.198;27.916;2022-07-23T01:54:34;-17276.47;;;-143.34;100.00
20636;BME280;10477;43.198;27.916;2022-07-23T01:57:02;-17276.47;;;-143.34;100.00
20636;BME280;10477;43.198;27.916;2022-07-23T01:59:31;-17276.47;;;-143.34;100.00
20636;BME280;10477;43.198;27.916;2022-07-23T02:01:59;-17276.47;;;-143.34;100.00
20636;BME280;10477;43.198;27.916;2022-07-23T02:04:26;-17276.47;;;-143.34;100.00
20636;BME280;10477;43.198;27.916;2022-07-23T02:06:55;-17276.47;;;-143.34;100.00
20636;BME280;10477;43.198;27.916;2022-07-23T02:09:24;-17276.47;;;-143.34;100.00
20636;BME280;10477;43.198;27.916;2022-07-23T02:11:51;-17276.47;;;-143.34;100.00
20636;BME280;10477;43.198;27.916;2022-07-23T02:14:19;-17276.47;;;-143.34;100.00
20636;BME280;10477;43.198;27.916;2022-07-23T02:16:47;-17276.47;;;-143.34;100.00
20636;BME280;10477;43.198;27.916;2022-07-23T02:19:15;-17276.47;;;-143.34;100.00
20636;BME280;10477;43.198;27.916;2022-07-23T02:21:42;-17276.47;;;-143.34;100.00
20636;BME280;10477;43.198;27.916;2022-07-23T02:24:11;-17276.47;;;-143.34;100.00
20636;BME280;10477;43.198;27.916;2022-07-23T02:26:39;-17276.47;;;-143.34;100.00
20636;BME280;10477;43.198;27.916;2022-07-23T02:29:06;-17276.47;;;-143.34;100.00
20636;BME280;10477;43.198;27.916;2022-07-23T02:31:34;-17276.47;;;-143.34;100.00
20636;BME280;10477;43.198;27.916;2022-07-23T02:34:03;-17276.47;;;-143.34;100.00
20636;BME280;10477;43.198;27.916;2022-07-23T02:36:31;-17276.47;;;-143.34;100.00
20636;BME280;10477;43.198;27.916;2022-07-23T02:38:58;-17276.47;;;-143.34;100.00
20636;BME280;10477;43.198;27.916;2022-07-23T02:41:26;-17276.47;;;-143.34;100.00
20636;BME280;10477;43.198;27.916;2022-07-23T02:43:53;-17276.47;;;-143.34;100.00
20636;BME280;10477;43.198;27.916;2022-07-23T02:46:21;-17276.47;;;-143.34;100.00
20636;BME280;10477;43.198;27.916;2022-07-23T02:48:49;-14047.35;;;-143.34;100.00
20636;BME280;10477;43.198;27.916;2022-07-23T02:51:16;-5895.79;;;-143.34;100.00
20636;BME280;10477;43.198;27.916;2022-07-23T02:53:44;1630.53;;;-143.34;100.00
20636;BME280;10477;43.198;27.916;2022-07-23T02:56:13;7789.85;;;-143.34;100.00
20636;BME280;10477;43.198;27.916;2022-07-23T02:58:41;12826.42;;;-143.34;100.00
20636;BME280;10477;43.198;27.916;2022-07-23T03:01:08;11944.47;;;-143.34;100.00
20636;BME280;10477;43.198;27.916;2022-07-23T03:03:36;10810.87;;;-143.34;100.00
20636;BME280;10477;43.198;27.916;2022-07-23T03:06:04;-10778.62;;;-143.34;100.00
20636;BME280;10477;43.198;27.916;2022-07-23T03:08:31;-17276.47;;;-143.34;100.00
20636;BME280;10477;43.198;27.916;2022-07-23T03:10:59;-17276.47;;;-143.34;100.00
20636;BME280;10477;43.198;27.916;2022-07-23T03:13:27;-17276.47;;;-143.34;100.00
20636;BME280;10477;43.198;27.916;2022-07-23T03:15:55;-17276.47;;;-143.34;100.00
20636;BME280;10477;43.198;27.916;2022-07-23T03:18:23;-17276.47;;;-143.34;100.00
20636;BME280;10477;43.198;27.916;2022-07-23T03:20:51;-17276.47;;;-143.34;100.00
20636;BME280;10477;43.198;27.916;2022-07-23T03:23:18;-17276.47;;;-143.34;100.00
20636;BME280;10477;43.198;27.916;2022-07-23T03:25:46;-17276.47;;;-143.34;100.00
20636;BME280;10477;43.198;27.916;2022-07-23T03:28:18;-17276.47;;;-143.34;100.00
20636;BME280;10477;43.198;27.916;2022-07-23T03:30:47;-17276.47;;;-143.34;100.00
20636;BME280;10477;43.198;27.916;2022-07-23T03:33:15;-17276.47;;;-143.34;100.00
20636;BME280;10477;43.198;27.916;2022-07-23T03:35:45;-17276.47;;;-143.34;100.00
20636;BME280;10477;43.198;27.916;2022-07-23T03:38:13;-17276.47;;;-143.34;100.00
20636;BME280;10477;43.198;27.916;2022-07-23T03:40:41;-17276.47;;;-143.34;100.00
20636;BME280;10477;43.198;27.916;2022-07-23T03:43:09;-17276.47;;;-143.34;100.00
20636;BME280;10477;43.198;27.916;2022-07-23T03:45:36;-17276.47;;;-143.34;100.00
20636;BME280;10477;43.198;27.916;2022-07-23T03:48:04;-17276.47;;;-143.34;100.00
20636;BME280;10477;43.198;27.916;2022-07-23T03:50:32;-17276.47;;;-143.34;100.00
20636;BME280;10477;43.198;27.916;2022-07-23T03:53:01;-17276.47;;;-143.34;100.00
20636;BME280;10477;43.198;27.916;2022-07-23T03:55:30;-17276.47;;;-143.34;100.00
20636;BME280;10477;43.198;27.916;2022-07-23T03:57:57;-17276.47;;;-143.34;100.00
20636;BME280;10477;43.198;27.916;2022-07-23T04:00:25;-17276.47;;;-143.34;100.00
20636;BME280;10477;43.198;27.916;2022-07-23T04:02:53;-17276.47;;;-143.34;100.00
20636;BME280;10477;43.198;27.916;2022-07-23T04:05:20;-17276.47;;;-143.34;100.00
20636;BME280;10477;43.198;27.916;2022-07-23T04:07:48;-17276.47;;;-143.34;100.00
20636;BME280;10477;43.198;27.916;2022-07-23T04:10:16;-17276.47;;;-143.34;100.00
20636;BME280;10477;43.198;27.916;2022-07-23T04:12:43;-17276.47;;;-143.34;100.00
20636;BME280;10477;43.198;27.916;2022-07-23T04:15:11;-17276.47;;;-143.34;100.00
20636;BME280;10477;43.198;27.916;2022-07-23T04:17:38;-17276.47;;;-143.34;100.00
20636;BME280;10477;43.198;27.916;2022-07-23T04:20:06;-17276.47;;;-143.34;100.00
20636;BME280;10477;43.198;27.916;2022-07-23T04:22:34;-17276.47;;;-143.34;100.00
20636;BME280;10477;43.198;27.916;2022-07-23T04:25:02;-17276.47;;;-143.34;100.00
20636;BME280;10477;43.198;27.916;2022-07-23T04:27:31;-17276.47;;;-143.34;100.00
20636;BME280;10477;43.198;27.916;2022-07-23T04:30:00;-17276.47;;;-143.34;100.00
20636;BME280;10477;43.198;27.916;2022-07-23T04:32:28;-17276.47;;;-143.34;100.00
20636;BME280;10477;43.198;27.916;2022-07-23T04:34:56;-17276.47;;;-143.34;100.00
20636;BME280;10477;43.198;27.916;2022-07-23T04:37:23;-17276.47;;;-143.34;100.00
20636;BME280;10477;43.198;27.916;2022-07-23T04:39:51;-17276.47;;;-143.34;100.00
20636;BME280;10477;43.198;27.916;2022-07-23T04:42:19;-17276.47;;;-143.34;100.00
20636;BME280;10477;43.198;27.916;2022-07-23T04:44:46;-17276.47;;;-143.34;100.00
20636;BME280;10477;43.198;27.916;2022-07-23T04:47:14;-17276.47;;;-143.34;100.00
20636;BME280;10477;43.198;27.916;2022-07-23T04:49:41;-17276.47;;;-143.34;100.00
20636;BME280;10477;43.198;27.916;2022-07-23T04:52:09;-17276.47;;;-143.34;100.00
20636;BME280;10477;43.198;27.916;2022-07-23T04:54:37;-17276.47;;;-143.34;100.00
20636;BME280;10477;43.198;27.916;2022-07-23T04:57:04;-17276.47;;;-143.34;100.00
20636;BME280;10477;43.198;27.916;2022-07-23T04:59:32;-17276.47;;;-143.34;100.00
20636;BME280;10477;43.198;27.916;2022-07-23T05:01:59;-17276.47;;;-143.34;100.00
20636;BME280;10477;43.198;27.916;2022-07-23T05:04:29;-17276.47;;;-143.34;100.00
20636;BME280;10477;43.198;27.916;2022-07-23T05:06:58;-17276.47;;;-143.34;100.00
20636;BME280;10477;43.198;27.916;2022-07-23T05:09:25;-17276.47;;;-143.34;100.00
20636;BME280;10477;43.198;27.916;2022-07-23T05:11:53;-17276.47;;;-143.34;100.00
20636;BME280;10477;43.198;27.916;2022-07-23T05:14:21;-17276.47;;;-143.34;100.00
20636;BME280;10477;43.198;27.916;2022-07-23T05:16:48;-17276.47;;;-143.34;100.00
20636;BME280;10477;43.198;27.916;2022-07-23T05:19:16;-17276.47;;;-143.34;100.00
20636;BME280;10477;43.198;27.916;2022-07-23T05:21:44;-17276.47;;;-143.34;100.00
20636;BME280;10477;43.198;27.916;2022-07-23T05:24:11;-17276.47;;;-143.34;100.00
20636;BME280;10477;43.198;27.916;2022-07-23T05:26:42;-17276.47;;;-143.34;100.00
20636;BME280;10477;43.198;27.916;2022-07-23T05:29:09;-17276.47;;;-143.34;100.00
20636;BME280;10477;43.198;27.916;2022-07-23T05:31:37;-17276.47;;;-143.34;100.00
20636;BME280;10477;43.198;27.916;2022-07-23T05:34:05;-17276.47;;;-143.34;100.00
20636;BME280;10477;43.198;27.916;2022-07-23T05:36:33;-17276.47;;;-143.34;100.00
20636;BME280;10477;43.198;27.916;2022-07-23T05:39:00;-17276.47;;;-143.34;100.00
20636;BME280;10477;43.198;27.916;2022-07-23T05:41:28;-17276.47;;;-143.34;100.00
20636;BME280;10477;43.198;27.916;2022-07-23T05:43:56;-17276.47;;;-143.34;100.00
20636;BME280;10477;43.198;27.916;2022-07-23T05:46:23;-17276.47;;;-143.34;100.00
20636;BME280;10477;43.198;27.916;2022-07-23T05:48:51;-17276.47;;;-143.34;100.00
20636;BME280;10477;43.198;27.916;2022-07-23T05:51:23;-17276.47;;;-143.34;100.00
20636;BME280;10477;43.198;27.916;2022-07-23T05:53:51;-17276.47;;;-143.34;100.00
20636;BME280;10477;43.198;27.916;2022-07-23T05:56:20;-17276.47;;;-143.34;100.00
20636;BME280;10477;43.198;27.916;2022-07-23T05:58:48;-17276.47;;;-143.34;100.00
20636;BME280;10477;43.198;27.916;2022-07-23T06:01:15;-17276.47;;;-143.34;100.00
20636;BME280;10477;43.198;27.916;2022-07-23T06:03:45;-17276.47;;;-143.34;100.00
20636;BME280;10477;43.198;27.916;2022-07-23T06:06:12;-17276.47;;;-143.34;100.00
20636;BME280;10477;43.198;27.916;2022-07-23T06:08:40;-17276.47;;;-143.34;100.00
20636;BME280;10477;43.198;27.916;2022-07-23T06:11:08;-17276.47;;;-143.34;100.00
20636;BME280;10477;43.198;27.916;2022-07-23T06:13:37;-17276.47;;;-143.34;100.00
20636;BME280;10477;43.198;27.916;2022-07-23T06:16:05;-17276.47;;;-143.34;100.00
20636;BME280;10477;43.198;27.916;2022-07-23T06:18:32;-17276.47;;;-143.34;100.00
20636;BME280;10477;43.198;27.916;2022-07-23T06:21:00;-17276.47;;;-143.34;100.00
20636;BME280;10477;43.198;27.916;2022-07-23T06:23:28;-17276.47;;;-143.34;100.00
20636;BME280;10477;43.198;27.916;2022-07-23T06:25:55;-17276.47;;;-143.34;100.00
20636;BME280;10477;43.198;27.916;2022-07-23T06:28:23;-17276.47;;;-143.34;100.00
20636;BME280;10477;43.198;27.916;2022-07-23T06:30:50;-17276.47;;;-143.34;100.00
20636;BME280;10477;43.198;27.916;2022-07-23T06:33:18;-17276.47;;;-143.34;100.00
20636;BME280;10477;43.198;27.916;2022-07-23T06:35:46;-17276.47;;;-143.34;100.00
20636;BME280;10477;43.198;27.916;2022-07-23T06:38:13;-17276.47;;;-143.34;100.00
20636;BME280;10477;43.198;27.916;2022-07-23T06:40:41;-17276.47;;;-143.34;100.00
20636;BME280;10477;43.198;27.916;2022-07-23T06:43:10;-17276.47;;;-143.34;100.00
20636;BME280;10477;43.198;27.916;2022-07-23T06:45:38;-17276.47;;;-143.34;100.00
20636;BME280;10477;43.198;27.916;2022-07-23T06:48:05;-17276.47;;;-143.34;100.00
20636;BME280;10477;43.198;27.916;2022-07-23T06:50:33;-17276.47;;;-143.34;100.00
20636;BME280;10477;43.198;27.916;2022-07-23T06:53:00;-17276.47;;;-143.34;100.00
20636;BME280;10477;43.198;27.916;2022-07-23T06:55:29;-17276.47;;;-143.34;100.00
20636;BME280;10477;43.198;27.916;2022-07-23T06:57:57;-17276.47;;;-143.34;100.00
20636;BME280;10477;43.198;27.916;2022-07-23T07:00:25;-17276.47;;;-143.34;100.00
20636;BME280;10477;43.198;27.916;2022-07-23T07:02:54;-17276.47;;;-143.34;100.00
20636;BME280;10477;43.198;27.916;2022-07-23T07:05:21;-17276.47;;;-143.34;100.00
20636;BME280;10477;43.198;27.916;2022-07-23T07:07:49;-17276.47;;;-143.34;100.00
20636;BME280;10477;43.198;27.916;2022-07-23T07:10:17;-17276.47;;;-143.34;100.00
20636;BME280;10477;43.198;27.916;2022-07-23T07:12:45;-17276.47;;;-143.34;100.00
20636;BME280;10477;43.198;27.916;2022-07-23T07:15:13;-17276.47;;;-143.34;100.00
20636;BME280;10477;43.198;27.916;2022-07-23T07:17:40;-17276.47;;;-143.34;100.00
20636;BME280;10477;43.198;27.916;2022-07-23T07:20:09;-17276.47;;;-143.34;100.00
20636;BME280;10477;43.198;27.916;2022-07-23T07:22:37;-17276.47;;;-143.34;100.00
20636;BME280;10477;43.198;27.916;2022-07-23T07:25:06;-17276.47;;;-143.34;100.00
20636;BME280;10477;43.198;27.916;2022-07-23T07:27:34;-17276.47;;;-143.34;100.00
20636;BME280;10477;43.198;27.916;2022-07-23T07:30:04;-17276.47;;;-143.34;100.00
20636;BME280;10477;43.198;27.916;2022-07-23T07:32:32;-17276.47;;;-143.34;100.00
20636;BME280;10477;43.198;27.916;2022-07-23T07:34:59;-17276.47;;;-143.34;98.23
20636;BME280;10477;43.198;27.916;2022-07-23T07:37:27;-17276.47;;;-143.34;90.65
20636;BME280;10477;43.198;27.916;2022-07-23T07:39:55;-17276.47;;;-143.34;91.64
20636;BME280;10477;43.198;27.916;2022-07-23T07:42:23;-17276.47;;;-143.34;100.00
20636;BME280;10477;43.198;27.916;2022-07-23T07:44:51;-17276.47;;;-143.34;100.00
20636;BME280;10477;43.198;27.916;2022-07-23T07:47:19;-17276.47;;;-143.34;100.00
20636;BME280;10477;43.198;27.916;2022-07-23T07:49:48;-17276.47;;;-143.34;100.00
20636;BME280;10477;43.198;27.916;2022-07-23T07:52:17;-17276.47;;;-143.34;100.00
20636;BME280;10477;43.198;27.916;2022-07-23T07:54:45;-17276.47;;;-143.34;100.00
20636;BME280;10477;43.198;27.916;2022-07-23T07:57:12;-17276.47;;;-143.34;100.00
20636;BME280;10477;43.198;27.916;2022-07-23T07:59:40;-17276.47;;;-143.34;100.00
20636;BME280;10477;43.198;27.916;2022-07-23T08:02:07;-17276.47;;;-143.34;100.00
20636;BME280;10477;43.198;27.916;2022-07-23T08:04:35;-17276.47;;;-143.34;100.00
20636;BME280;10477;43.198;27.916;2022-07-23T08:07:03;-17276.47;;;-143.34;100.00
20636;BME280;10477;43.198;27.916;2022-07-23T08:09:30;-17276.47;;;-143.34;100.00
20636;BME280;10477;43.198;27.916;2022-07-23T08:11:58;-17276.47;;;-143.34;100.00
20636;BME280;10477;43.198;27.916;2022-07-23T08:14:25;-17276.47;;;-143.34;100.00
20636;BME280;10477;43.198;27.916;2022-07-23T08:16:53;-17276.47;;;-143.34;100.00
20636;BME280;10477;43.198;27.916;2022-07-23T08:19:21;-17276.47;;;-143.34;100.00
20636;BME280;10477;43.198;27.916;2022-07-23T08:21:49;-17276.47;;;-143.34;100.00
20636;BME280;10477;43.198;27.916;2022-07-23T08:24:16;-17276.47;;;-143.34;100.00
20636;BME280;10477;43.198;27.916;2022-07-23T08:26:44;-17276.47;;;-143.34;100.00
20636;BME280;10477;43.198;27.916;2022-07-23T08:29:11;-17276.47;;;-143.34;100.00
20636;BME280;10477;43.198;27.916;2022-07-23T08:31:39;-17276.47;;;-143.34;100.00
20636;BME280;10477;43.198;27.916;2022-07-23T08:34:08;-17276.47;;;-143.34;100.00
20636;BME280;10477;43.198;27.916;2022-07-23T08:36:36;-17276.47;;;-143.34;100.00
20636;BME280;10477;43.198;27.916;2022-07-23T08:39:04;-17276.47;;;-143.34;100.00
20636;BME280;10477;43.198;27.916;2022-07-23T08:41:32;-17276.47;;;-143.34;100.00
20636;BME280;10477;43.198;27.916;2022-07-23T08:44:01;-17276.47;;;-143.34;100.00
20636;BME280;10477;43.198;27.916;2022-07-23T08:46:29;-17276.47;;;-143.34;100.00
20636;BME280;10477;43.198;27.916;2022-07-23T08:48:57;-17276.47;;;-143.34;100.00
20636;BME280;10477;43.198;27.916;2022-07-23T08:51:27;-17276.47;;;-143.34;100.00
20636;BME280;10477;43.198;27.916;2022-07-23T08:53:56;-17276.47;;;-143.34;100.00
20636;BME280;10477;43.198;27.916;2022-07-23T08:56:25;-17276.47;;;-143.34;100.00
20636;BME280;10477;43.198;27.916;2022-07-23T08:58:54;-17276.47;;;-143.34;100.00
20636;BME280;10477;43.198;27.916;2022-07-23T09:01:21;-17276.47;;;-143.34;100.00
20636;BME280;10477;43.198;27.916;2022-07-23T09:03:49;-17276.47;;;-143.34;100.00
20636;BME280;10477;43.198;27.916;2022-07-23T09:06:17;-17276.47;;;-143.34;100.00
20636;BME280;10477;43.198;27.916;2022-07-23T09:08:46;-17276.47;;;-143.34;100.00
20636;BME280;10477;43.198;27.916;2022-07-23T09:11:16;-17276.47;;;-143.34;100.00
20636;BME280;10477;43.198;27.916;2022-07-23T09:13:49;-17276.47;;;-143.34;100.00
20636;BME280;10477;43.198;27.916;2022-07-23T09:18:55;-17276.47;;;-143.34;100.00
20636;BME280;10477;43.198;27.916;2022-07-23T09:21:38;-17276.47;;;-143.34;100.00
20636;BME280;10477;43.198;27.916;2022-07-23T09:24:07;-17276.47;;;-143.34;100.00
20636;BME280;10477;43.198;27.916;2022-07-23T09:26:40;-17276.47;;;-143.34;100.00
20636;BME280;10477;43.198;27.916;2022-07-23T09:31:56;-17276.47;;;-143.34;100.00
20636;BME280;10477;43.198;27.916;2022-07-23T09:34:31;-17276.47;;;-143.34;100.00
20636;BME280;10477;43.198;27.916;2022-07-23T09:37:18;-17276.47;;;-143.34;100.00
20636;BME280;10477;43.198;27.916;2022-07-23T09:39:47;-17276.47;;;-143.34;100.00
20636;BME280;10477;43.198;27.916;2022-07-23T09:42:19;-17276.47;;;-143.34;100.00
20636;BME280;10477;43.198;27.916;2022-07-23T09:44:49;-17276.47;;;-143.34;100.00
20636;BME280;10477;43.198;27.916;2022-07-23T09:47:20;-17276.47;;;-143.34;100.00
20636;BME280;10477;43.198;27.916;2022-07-23T09:50:03;-17276.47;;;-143.34;100.00
20636;BME280;10477;43.198;27.916;2022-07-23T09:52:46;-17276.47;;;-143.34;100.00
20636;BME280;10477;43.198;27.916;2022-07-23T09:55:07;-17276.47;;;-143.34;100.00
20636;BME280;10477;43.198;27.916;2022-07-23T09:57:37;-17276.47;;;-143.34;100.00
20636;BME280;10477;43.198;27.916;2022-07-23T10:00:09;-17276.47;;;-143.34;100.00
20636;BME280;10477;43.198;27.916;2022-07-23T10:02:39;-17276.47;;;-143.34;100.00
20636;BME280;10477;43.198;27.916;2022-07-23T10:05:07;-17276.47;;;-143.34;100.00
20636;BME280;10477;43.198;27.916;2022-07-23T10:07:37;-17276.47;;;-143.34;100.00
20636;BME280;10477;43.198;27.916;2022-07-23T10:10:07;-17276.47;;;-143.34;100.00
20636;BME280;10477;43.198;27.916;2022-07-23T10:12:36;-17276.47;;;-143.34;100.00
20636;BME280;10477;43.198;27.916;2022-07-23T10:15:09;-17276.47;;;-143.34;100.00
20636;BME280;10477;43.198;27.916;2022-07-23T10:17:37;-17276.47;;;-143.34;100.00
20636;BME280;10477;43.198;27.916;2022-07-23T10:20:06;-17276.47;;;-143.34;100.00
20636;BME280;10477;43.198;27.916;2022-07-23T10:22:40;-17276.47;;;-143.34;100.00
20636;BME280;10477;43.198;27.916;2022-07-23T10:25:27;-17276.47;;;-143.34;100.00
20636;BME280;10477;43.198;27.916;2022-07-23T10:34:05;-17276.47;;;-143.34;100.00
20636;BME280;10477;43.198;27.916;2022-07-23T10:36:32;-17276.47;;;-143.34;100.00
20636;BME280;10477;43.198;27.916;2022-07-23T10:39:04;-17276.47;;;-143.34;100.00
20636;BME280;10477;43.198;27.916;2022-07-23T10:41:38;-17276.47;;;-143.34;100.00
20636;BME280;10477;43.198;27.916;2022-07-23T10:44:11;-17276.47;;;-143.34;100.00
20636;BME280;10477;43.198;27.916;2022-07-23T10:49:33;-17276.47;;;-143.34;100.00
20636;BME280;10477;43.198;27.916;2022-07-23T10:52:22;-17276.47;;;-143.34;100.00
20636;BME280;10477;43.198;27.916;2022-07-23T10:57:51;-17276.47;;;-143.34;100.00
20636;BME280;10477;43.198;27.916;2022-07-23T11:00:26;-17276.47;;;-143.34;100.00
20636;BME280;10477;43.198;27.916;2022-07-23T11:02:57;-17276.47;;;-143.34;100.00
20636;BME280;10477;43.198;27.916;2022-07-23T11:05:47;-17276.47;;;-143.34;100.00
20636;BME280;10477;43.198;27.916;2022-07-23T11:10:44;-17276.47;;;-143.34;100.00
20636;BME280;10477;43.198;27.916;2022-07-23T11:16:07;-17276.47;;;-143.34;100.00
20636;BME280;10477;43.198;27.916;2022-07-23T11:24:00;-17276.47;;;-143.34;100.00
20636;BME280;10477;43.198;27.916;2022-07-23T11:32:18;-17276.47;;;-143.34;100.00
20636;BME280;10477;43.198;27.916;2022-07-23T11:34:42;-17276.47;;;-143.34;100.00
20636;BME280;10477;43.198;27.916;2022-07-23T11:37:12;-17276.47;;;-143.34;100.00
20636;BME280;10477;43.198;27.916;2022-07-23T11:39:41;-17276.47;;;-143.34;100.00
20636;BME280;10477;43.198;27.916;2022-07-23T11:42:09;-17276.47;;;-143.34;100.00
20636;BME280;10477;43.198;27.916;2022-07-23T11:44:39;-17276.47;;;-143.34;100.00
20636;BME280;10477;43.198;27.916;2022-07-23T11:47:09;-17276.47;;;-143.34;100.00
20636;BME280;10477;43.198;27.916;2022-07-23T11:49:38;-17276.47;;;-143.34;100.00
20636;BME280;10477;43.198;27.916;2022-07-23T11:52:14;-17276.47;;;-143.34;100.00
20636;BME280;10477;43.198;27.916;2022-07-23T11:55:01;-17276.47;;;-143.34;100.00
20636;BME280;10477;43.198;27.916;2022-07-23T11:57:20;-17276.47;;;-143.34;100.00
20636;BME280;10477;43.198;27.916;2022-07-23T11:59:51;-17276.47;;;-143.34;100.00
20636;BME280;10477;43.198;27.916;2022-07-23T12:02:20;-17276.47;;;-143.34;100.00
20636;BME280;10477;43.198;27.916;2022-07-23T12:04:51;-17276.47;;;-143.34;100.00
20636;BME280;10477;43.198;27.916;2022-07-23T12:07:42;-17276.47;;;-143.34;100.00
20636;BME280;10477;43.198;27.916;2022-07-23T12:10:16;-17276.47;;;-143.34;100.00
20636;BME280;10477;43.198;27.916;2022-07-23T12:12:49;-17276.47;;;-143.34;100.00
20636;BME280;10477;43.198;27.916;2022-07-23T12:15:22;-17276.47;;;-143.34;100.00
20636;BME280;10477;43.198;27.916;2022-07-23T12:17:51;-17276.47;;;-143.34;100.00
20636;BME280;10477;43.198;27.916;2022-07-23T12:20:23;-17276.47;;;-143.34;100.00
20636;BME280;10477;43.198;27.916;2022-07-23T12:22:58;-17276.47;;;-143.34;100.00
20636;BME280;10477;43.198;27.916;2022-07-23T12:25:25;-17276.47;;;-143.34;100.00
20636;BME280;10477;43.198;27.916;2022-07-23T12:28:34;-17276.47;;;-143.34;100.00
20636;BME280;10477;43.198;27.916;2022-07-23T12:30:40;-17276.47;;;-143.34;100.00
20636;BME280;10477;43.198;27.916;2022-07-23T12:33:11;-17276.47;;;-143.34;100.00
20636;BME280;10477;43.198;27.916;2022-07-23T12:35:43;-17276.47;;;-143.34;100.00
20636;BME280;10477;43.198;27.916;2022-07-23T12:38:16;-17276.47;;;-143.34;100.00
20636;BME280;10477;43.198;27.916;2022-07-23T12:40:48;-17276.47;;;-143.34;100.00
20636;BME280;10477;43.198;27.916;2022-07-23T12:43:31;-17276.47;;;-143.34;100.00
20636;BME280;10477;43.198;27.916;2022-07-23T12:46:07;-17276.47;;;-143.34;100.00
20636;BME280;10477;43.198;27.916;2022-07-23T12:48:49;-17276.47;;;-143.34;100.00
20636;BME280;10477;43.198;27.916;2022-07-23T12:51:15;-17276.47;;;-143.34;100.00
20636;BME280;10477;43.198;27.916;2022-07-23T12:53:48;-17276.47;;;-143.34;100.00